createdAt,value
2018-05-31T01:52:02.992Z,13.50
2018-05-31T01:54:06.593Z,11.00
2018-05-31T01:56:11.058Z,14.30
2018-05-31T01:58:14.806Z,19.03
2018-05-31T02:00:19.424Z,14.27
2018-05-31T02:02:23.064Z,12.63
2018-05-31T02:04:26.798Z,13.00
2018-05-31T02:06:30.631Z,12.60
2018-05-31T02:08:34.175Z,15.23
2018-05-31T02:10:38.286Z,14.60
2018-05-31T02:12:42.240Z,13.33
2018-05-31T02:14:45.815Z,13.97
2018-05-31T02:16:50.157Z,17.07
2018-05-31T02:18:55.112Z,11.27
2018-05-31T02:20:58.553Z,14.57
2018-05-31T02:23:02.048Z,13.07
2018-05-31T02:25:05.590Z,13.97
2018-05-31T02:27:09.316Z,15.03
2018-05-31T02:29:12.752Z,15.23
2018-05-31T02:33:38.943Z,14.50
2018-05-31T02:35:42.341Z,18.63
2018-05-31T02:37:45.666Z,15.47
2018-05-31T02:39:49.748Z,19.90
2018-05-31T02:41:53.113Z,13.73
2018-05-31T02:43:56.412Z,22.73
2018-05-31T02:45:59.737Z,15.20
2018-05-31T02:48:03.067Z,17.97
2018-05-31T02:50:06.372Z,12.53
2018-05-31T02:52:09.671Z,14.10
2018-05-31T02:54:12.994Z,17.30
2018-05-31T02:56:16.339Z,11.20
2018-05-31T02:58:19.637Z,12.17
2018-05-31T03:00:22.955Z,16.43
2018-05-31T03:02:26.246Z,9.00
2018-05-31T03:04:29.601Z,16.40
2018-05-31T03:06:32.935Z,14.53
2018-05-31T03:08:36.261Z,11.57
2018-05-31T03:10:39.634Z,15.77
2018-05-31T03:12:43.725Z,9.97
2018-05-31T03:14:47.122Z,15.27
2018-05-31T03:16:50.461Z,15.93
2018-05-31T03:18:53.876Z,26.93
2018-05-31T03:20:57.190Z,16.97
2018-05-31T03:23:00.546Z,14.77
2018-05-31T03:25:03.863Z,22.00
2018-05-31T03:27:07.947Z,14.73
2018-05-31T03:29:11.270Z,31.90
2018-05-31T03:31:14.608Z,16.40
2018-05-31T03:33:17.922Z,12.90
2018-05-31T03:35:21.263Z,12.23
2018-05-31T03:37:31.270Z,13.73
2018-05-31T03:39:34.578Z,17.37
2018-05-31T03:41:37.903Z,16.43
2018-05-31T03:43:41.239Z,18.33
2018-05-31T03:45:44.559Z,16.00
2018-05-31T03:47:48.668Z,16.00
2018-05-31T03:49:52.052Z,15.23
2018-05-31T03:51:55.378Z,18.00
2018-05-31T03:53:58.726Z,18.27
2018-05-31T03:56:02.076Z,17.70
2018-05-31T03:58:06.155Z,13.40
2018-05-31T04:00:09.490Z,15.77
2018-05-31T04:02:13.740Z,16.27
2018-05-31T04:04:17.056Z,10.87
2018-05-31T04:06:21.331Z,17.43
2018-05-31T04:08:24.671Z,15.50
2018-05-31T04:10:28.018Z,16.63
2018-05-31T04:12:31.337Z,22.83
2018-05-31T04:14:34.831Z,12.73
2018-05-31T04:16:38.126Z,13.53
2018-05-31T04:18:41.473Z,11.13
2018-05-31T04:20:44.808Z,9.67
2018-05-31T04:22:48.177Z,4.33
2018-05-31T04:24:51.668Z,6.87
2018-05-31T04:26:55.858Z,5.93
2018-05-31T04:28:59.197Z,4.80
2018-05-31T04:31:02.775Z,13.00
2018-05-31T04:33:06.091Z,11.40
2018-05-31T04:35:09.452Z,7.07
2018-05-31T04:37:12.928Z,9.60
2018-05-31T04:39:16.253Z,6.23
2018-05-31T04:41:19.598Z,10.30
2018-05-31T04:43:22.932Z,7.80
2018-05-31T04:45:26.293Z,5.00
2018-05-31T04:47:29.683Z,5.83
2018-05-31T04:49:33.051Z,10.43
2018-05-31T04:51:36.418Z,15.30
2018-05-31T04:53:39.705Z,8.73
2018-05-31T04:55:43.026Z,8.50
2018-05-31T04:57:46.412Z,5.07
2018-05-31T04:59:49.727Z,5.97
2018-05-31T05:01:53.114Z,7.13
2018-05-31T05:03:56.422Z,11.17
2018-05-31T05:05:59.766Z,6.60
2018-05-31T05:08:04.084Z,5.47
2018-05-31T05:10:07.447Z,10.97
2018-05-31T05:12:10.770Z,4.20
2018-05-31T05:14:14.240Z,12.63
2018-05-31T05:16:17.567Z,6.47
2018-05-31T05:18:20.865Z,5.47
2018-05-31T05:20:24.942Z,5.20
2018-05-31T05:22:28.267Z,7.63
2018-05-31T05:24:31.589Z,5.33
2018-05-31T05:26:34.923Z,6.63
2018-05-31T05:28:38.260Z,7.43
2018-05-31T05:30:41.566Z,7.53
2018-05-31T05:32:44.930Z,12.17
2018-05-31T05:34:48.249Z,9.50
2018-05-31T05:36:51.565Z,11.57
2018-05-31T05:38:54.932Z,14.27
2018-05-31T05:40:59.043Z,6.87
2018-05-31T05:43:02.403Z,7.50
2018-05-31T05:45:05.707Z,9.93
2018-05-31T05:47:09.095Z,8.83
2018-05-31T05:49:12.430Z,6.20
2018-05-31T05:51:15.807Z,6.17
2018-05-31T05:53:19.935Z,5.23
2018-05-31T05:55:23.263Z,12.43
2018-05-31T05:57:26.639Z,12.53
2018-05-31T05:59:29.970Z,59.00
2018-05-31T06:01:33.346Z,22.97
2018-05-31T06:03:37.421Z,14.70
2018-05-31T06:05:41.519Z,11.00
2018-05-31T06:07:44.866Z,16.43
2018-05-31T06:09:48.289Z,8.60
2018-05-31T06:11:52.466Z,6.47
2018-05-31T06:13:55.825Z,14.93
2018-05-31T06:15:59.236Z,4.50
2018-05-31T06:18:02.586Z,3.90
2018-05-31T06:20:06.762Z,12.97
2018-05-31T06:22:10.075Z,4.50
2018-05-31T06:24:13.849Z,6.53
2018-05-31T06:26:17.281Z,9.93
2018-05-31T06:28:20.510Z,5.93
2018-05-31T06:30:23.889Z,7.00
2018-05-31T06:32:27.281Z,3.43
2018-05-31T06:34:30.633Z,6.10
2018-05-31T06:36:34.082Z,5.97
2018-05-31T06:38:37.423Z,7.70
2018-05-31T06:40:40.767Z,7.00
2018-05-31T06:42:44.100Z,4.73
2018-05-31T06:44:48.402Z,2.30
2018-05-31T06:46:51.771Z,2.50
2018-05-31T06:48:55.103Z,3.93
2018-05-31T06:50:58.441Z,4.07
2018-05-31T06:53:01.864Z,2.00
2018-05-31T06:55:05.226Z,3.90
2018-05-31T06:57:08.643Z,4.27
2018-05-31T06:59:12.497Z,3.63
2018-05-31T07:01:15.904Z,4.50
2018-05-31T07:03:20.016Z,3.00
2018-05-31T07:05:24.085Z,6.20
2018-05-31T07:07:27.556Z,2.27
2018-05-31T07:09:31.800Z,4.70
2018-05-31T07:11:38.611Z,1.73
2018-05-31T07:13:42.152Z,7.60
2018-05-31T07:15:46.422Z,5.57
2018-05-31T07:17:49.750Z,2.97
2018-05-31T07:19:53.137Z,7.20
2018-05-31T07:21:56.548Z,8.53
2018-05-31T07:23:59.855Z,4.20
2018-05-31T07:26:03.568Z,5.10
2018-05-31T07:28:06.961Z,3.03
2018-05-31T07:30:10.688Z,5.17
2018-05-31T07:32:14.995Z,7.07
2018-05-31T07:34:18.407Z,3.80
2018-05-31T07:36:21.709Z,1.50
2018-05-31T07:38:25.276Z,5.10
2018-05-31T07:40:28.604Z,2.00
2018-05-31T07:42:32.041Z,4.03
2018-05-31T07:44:35.700Z,6.13
2018-05-31T07:46:40.043Z,2.70
2018-05-31T07:48:43.336Z,5.03
2018-05-31T07:50:46.721Z,3.30
2018-05-31T07:52:50.883Z,2.83
2018-05-31T07:54:54.891Z,3.60
2018-05-31T07:56:58.481Z,2.20
2018-05-31T07:59:02.108Z,2.00
2018-05-31T08:01:05.538Z,3.53
2018-05-31T08:03:08.875Z,2.53
2018-05-31T08:05:13.014Z,3.97
2018-05-31T08:07:17.610Z,4.20
2018-05-31T08:09:20.954Z,2.30
2018-05-31T08:11:24.313Z,4.40
2018-05-31T08:13:27.629Z,2.03
2018-05-31T08:15:31.131Z,7.57
2018-05-31T08:17:35.417Z,16.83
2018-05-31T08:19:38.715Z,1.60
2018-05-31T08:21:42.069Z,4.80
2018-05-31T08:23:46.181Z,1.87
2018-05-31T08:25:49.551Z,5.73
2018-05-31T08:27:53.803Z,6.53
2018-05-31T08:29:57.189Z,3.93
2018-05-31T08:32:00.583Z,6.23
2018-05-31T08:34:04.698Z,5.00
2018-05-31T08:36:08.780Z,1.90
2018-05-31T08:38:12.125Z,4.00
2018-05-31T08:40:15.507Z,6.83
2018-05-31T08:42:18.841Z,4.60
2018-05-31T08:44:22.155Z,7.07
2018-05-31T08:46:25.524Z,1.90
2018-05-31T08:48:28.837Z,2.63
2018-05-31T08:50:32.220Z,7.60
2018-05-31T08:52:35.634Z,3.90
2018-05-31T08:54:39.751Z,4.73
2018-05-31T08:56:43.118Z,6.63
2018-05-31T08:58:46.511Z,10.27
2018-05-31T09:00:49.821Z,6.23
2018-05-31T09:02:53.312Z,15.43
2018-05-31T09:04:56.653Z,4.60
2018-05-31T09:06:59.973Z,7.70
2018-05-31T09:09:03.700Z,6.23
2018-05-31T09:11:07.758Z,2.10
2018-05-31T09:13:11.467Z,4.80
2018-05-31T09:15:14.945Z,5.97
2018-05-31T09:17:18.448Z,10.20
2018-05-31T09:19:21.809Z,5.47
2018-05-31T09:21:25.960Z,4.17
2018-05-31T09:23:29.402Z,11.00
2018-05-31T09:25:33.524Z,3.27
2018-05-31T09:27:36.849Z,2.60
2018-05-31T09:29:40.210Z,3.23
2018-05-31T09:31:44.569Z,2.40
2018-05-31T09:33:47.912Z,3.73
2018-05-31T09:35:51.292Z,6.10
2018-05-31T09:37:54.698Z,2.83
2018-05-31T09:39:58.061Z,6.10
2018-05-31T09:42:01.493Z,9.33
2018-05-31T09:44:05.623Z,12.00
2018-05-31T09:46:09.449Z,3.00
2018-05-31T09:48:12.936Z,6.33
2018-05-31T09:50:16.316Z,4.00
2018-05-31T09:52:20.809Z,3.00
2018-05-31T09:54:25.784Z,5.87
2018-05-31T09:56:30.618Z,4.40
2018-05-31T09:58:34.289Z,3.43
2018-05-31T10:00:38.795Z,4.93
2018-05-31T10:02:42.151Z,4.67
2018-05-31T10:04:46.220Z,3.10
2018-05-31T10:06:49.542Z,4.23
2018-05-31T10:08:52.854Z,4.40
2018-05-31T10:10:56.310Z,2.23
2018-05-31T10:12:59.883Z,5.20
2018-05-31T10:15:04.009Z,4.73
2018-05-31T10:17:08.168Z,6.67
2018-05-31T10:19:11.462Z,3.90
2018-05-31T10:21:14.885Z,6.50
2018-05-31T10:23:19.071Z,7.73
2018-05-31T10:25:22.476Z,4.30
2018-05-31T10:27:25.809Z,3.90
2018-05-31T10:29:29.130Z,1.63
2018-05-31T10:31:32.461Z,7.93
2018-05-31T10:33:35.771Z,3.53
2018-05-31T10:35:39.096Z,8.60
2018-05-31T10:37:42.442Z,5.20
2018-05-31T10:39:46.591Z,3.60
2018-05-31T10:41:49.923Z,3.73
2018-05-31T10:43:53.368Z,4.13
2018-05-31T10:45:56.688Z,6.47
2018-05-31T10:48:05.346Z,9.27
2018-05-31T10:50:08.768Z,3.73
2018-05-31T10:54:21.816Z,2.90
2018-05-31T10:56:25.444Z,8.60
2018-05-31T10:58:28.764Z,2.90
2018-05-31T11:00:32.874Z,4.00
2018-05-31T11:02:36.311Z,5.77
2018-05-31T11:04:39.693Z,7.07
2018-05-31T11:06:45.961Z,3.40
2018-05-31T11:08:49.324Z,7.63
2018-05-31T11:13:10.540Z,4.30
2018-05-31T11:15:15.161Z,10.20
2018-05-31T11:17:18.529Z,7.03
2018-05-31T11:19:24.431Z,7.10
2018-05-31T11:21:28.596Z,11.97
2018-05-31T11:23:31.928Z,4.83
2018-05-31T11:25:36.073Z,6.43
2018-05-31T11:27:39.470Z,5.67
2018-05-31T11:29:45.082Z,4.10
2018-05-31T11:31:49.214Z,4.93
2018-05-31T11:33:54.180Z,5.00
2018-05-31T11:35:57.555Z,5.57
2018-05-31T11:38:00.884Z,7.50
2018-05-31T11:40:04.227Z,5.23
2018-05-31T11:42:07.543Z,6.87
2018-05-31T11:44:10.882Z,11.13
2018-05-31T11:46:14.974Z,7.13
2018-05-31T11:48:18.323Z,7.83
2018-05-31T11:50:21.667Z,5.57
2018-05-31T11:52:25.057Z,5.27
2018-05-31T11:54:29.186Z,4.20
2018-05-31T11:56:32.596Z,4.93
2018-05-31T11:58:36.073Z,4.67
2018-05-31T12:00:39.453Z,4.57
2018-05-31T12:02:42.823Z,3.43
2018-05-31T12:04:46.163Z,5.67
2018-05-31T12:06:49.499Z,3.43
2018-05-31T12:08:53.007Z,5.77
2018-05-31T12:10:56.338Z,7.13
2018-05-31T12:12:59.690Z,5.17
2018-05-31T12:15:04.484Z,11.67
2018-05-31T12:17:07.861Z,6.13
2018-05-31T12:19:11.173Z,8.53
2018-05-31T12:21:14.496Z,8.33
2018-05-31T12:23:17.847Z,3.23
2018-05-31T12:25:21.155Z,8.73
2018-05-31T12:27:24.511Z,5.50
2018-05-31T12:29:27.875Z,3.47
2018-05-31T12:31:31.181Z,8.47
2018-05-31T12:33:34.513Z,5.17
2018-05-31T12:35:37.847Z,9.20
2018-05-31T12:37:42.497Z,6.67
2018-05-31T12:39:47.222Z,4.80
2018-05-31T12:41:50.778Z,9.97
2018-05-31T12:43:54.210Z,9.57
2018-05-31T12:45:58.301Z,5.67
2018-05-31T12:48:01.687Z,9.63
2018-05-31T12:50:04.980Z,6.90
2018-05-31T12:52:08.309Z,4.73
2018-05-31T12:54:11.677Z,10.20
2018-05-31T12:56:15.805Z,12.27
2018-05-31T12:58:19.146Z,6.03
2018-05-31T13:00:22.469Z,7.50
2018-05-31T13:02:25.822Z,6.57
2018-05-31T13:04:31.069Z,7.80
2018-05-31T13:06:35.304Z,9.10
2018-05-31T13:08:39.205Z,8.57
2018-05-31T13:10:43.504Z,7.30
2018-05-31T13:12:46.868Z,10.00
2018-05-31T13:14:50.297Z,8.60
2018-05-31T13:16:53.751Z,10.50
2018-05-31T13:18:57.128Z,10.33
2018-05-31T13:21:00.475Z,10.90
2018-05-31T13:23:05.540Z,10.23
2018-05-31T13:25:11.046Z,9.90
2018-05-31T13:27:14.470Z,7.80
2018-05-31T13:29:17.789Z,9.30
2018-05-31T13:31:21.163Z,14.47
2018-05-31T13:33:24.581Z,13.03
2018-05-31T13:35:27.893Z,8.87
2018-05-31T13:37:32.012Z,11.60
2018-05-31T13:39:35.481Z,9.50
2018-05-31T13:41:39.019Z,8.43
2018-05-31T13:43:42.496Z,10.67
2018-05-31T13:45:45.859Z,10.00
2018-05-31T13:47:49.194Z,6.33
2018-05-31T13:49:52.545Z,11.73
2018-05-31T13:51:55.868Z,8.23
2018-05-31T13:53:59.203Z,10.90
2018-05-31T13:56:02.669Z,11.10
2018-05-31T13:58:06.226Z,9.40
2018-05-31T14:00:09.560Z,8.37
2018-05-31T14:02:16.910Z,9.30
2018-05-31T14:04:20.340Z,10.93
2018-05-31T14:06:23.661Z,9.60
2018-05-31T14:08:28.498Z,9.87
2018-05-31T14:10:31.812Z,10.17
2018-05-31T14:12:35.147Z,7.97
2018-05-31T14:14:38.553Z,8.37
2018-05-31T14:16:41.880Z,15.43
2018-05-31T14:18:45.230Z,9.93
2018-05-31T14:20:48.566Z,7.80
2018-05-31T14:22:51.902Z,9.50
2018-05-31T14:24:55.225Z,11.10
2018-05-31T14:26:58.676Z,7.47
2018-05-31T14:29:02.491Z,11.37
2018-05-31T14:31:06.153Z,13.70
2018-05-31T14:33:14.068Z,7.63
2018-05-31T14:35:18.009Z,5.70
2018-05-31T14:37:22.061Z,12.70
2018-05-31T14:39:27.148Z,6.70
2018-05-31T14:41:31.275Z,6.97
2018-05-31T14:43:35.274Z,7.10
2018-05-31T14:45:39.454Z,19.87
2018-05-31T14:47:43.743Z,11.00
2018-05-31T14:49:47.416Z,8.43
2018-05-31T14:51:51.131Z,9.63
2018-05-31T14:53:54.766Z,8.27
2018-05-31T14:55:58.147Z,9.60
2018-05-31T14:58:01.567Z,5.43
2018-05-31T15:00:04.877Z,6.73
2018-05-31T15:02:09.179Z,10.33
2018-05-31T15:04:12.638Z,13.17
2018-05-31T15:10:37.413Z,10.60
2018-05-31T15:12:40.760Z,8.83
2018-05-31T15:14:45.032Z,10.70
2018-05-31T15:16:49.294Z,12.50
2018-05-31T15:18:53.045Z,13.53
2018-05-31T15:20:57.119Z,7.30
2018-05-31T15:23:00.473Z,6.67
2018-05-31T15:25:03.784Z,7.87
2018-05-31T15:27:07.095Z,8.10
2018-05-31T15:29:10.425Z,16.90
2018-05-31T15:31:14.744Z,8.97
2018-05-31T15:33:18.060Z,6.83
2018-05-31T15:35:21.382Z,10.87
2018-05-31T15:37:24.749Z,7.73
2018-05-31T15:39:28.066Z,7.53
2018-05-31T15:41:31.434Z,14.03
2018-05-31T15:43:34.907Z,5.57
2018-05-31T15:45:38.253Z,7.57
2018-05-31T15:47:41.629Z,4.33
2018-05-31T15:49:44.939Z,6.10
2018-05-31T15:51:48.284Z,8.37
2018-05-31T15:53:53.049Z,8.70
2018-05-31T15:55:56.439Z,16.23
2018-05-31T15:57:59.746Z,5.50
2018-05-31T16:00:03.082Z,6.13
2018-05-31T16:02:06.693Z,4.27
2018-05-31T16:04:10.035Z,11.00
2018-05-31T16:06:13.403Z,7.10
2018-05-31T16:08:16.695Z,13.23
2018-05-31T16:10:21.188Z,9.87
2018-05-31T16:12:24.523Z,9.13
2018-05-31T16:14:27.825Z,11.70
2018-05-31T16:16:31.169Z,6.80
2018-05-31T16:18:35.470Z,6.93
2018-05-31T16:20:38.785Z,4.80
2018-05-31T16:22:42.134Z,6.60
2018-05-31T16:24:46.285Z,10.10
2018-05-31T16:26:50.417Z,6.77
2018-05-31T16:28:53.738Z,5.83
2018-05-31T16:30:57.087Z,9.33
2018-05-31T16:33:01.227Z,7.80
2018-05-31T16:35:04.613Z,10.83
2018-05-31T16:37:08.073Z,11.13
2018-05-31T16:39:11.378Z,14.37
2018-05-31T16:41:14.690Z,8.10
2018-05-31T16:43:18.077Z,9.57
2018-05-31T16:45:24.244Z,10.77
2018-05-31T16:47:27.586Z,10.23
2018-05-31T16:49:30.975Z,11.63
2018-05-31T16:51:34.445Z,13.33
2018-05-31T16:53:38.577Z,14.80
2018-05-31T16:55:41.920Z,11.70
2018-05-31T16:57:45.229Z,10.47
2018-05-31T16:59:48.548Z,13.30
2018-05-31T17:01:51.905Z,11.80
2018-05-31T17:03:55.268Z,11.57
2018-05-31T17:05:58.696Z,10.47
2018-05-31T17:08:02.066Z,10.60
2018-05-31T17:10:06.214Z,9.40
2018-05-31T17:12:09.780Z,12.50
2018-05-31T17:14:13.140Z,16.40
2018-05-31T17:16:17.222Z,10.77
2018-05-31T17:18:21.320Z,11.60
2018-05-31T17:20:24.710Z,11.93
2018-05-31T17:22:28.022Z,6.80
2018-05-31T17:24:31.379Z,13.07
2018-05-31T17:26:34.759Z,11.90
2018-05-31T17:28:38.903Z,11.77
2018-05-31T17:30:42.270Z,12.40
2018-05-31T17:32:45.750Z,9.43
2018-05-31T17:34:49.137Z,9.60
2018-05-31T17:36:52.472Z,12.10
2018-05-31T17:38:55.792Z,8.07
2018-05-31T17:40:59.158Z,11.90
2018-05-31T17:43:03.263Z,12.10
2018-05-31T17:45:06.678Z,11.43
2018-05-31T17:47:10.006Z,10.00
2018-05-31T17:51:31.393Z,10.63
2018-05-31T17:53:34.741Z,12.90
2018-05-31T17:55:38.104Z,14.30
2018-05-31T17:57:41.453Z,14.83
2018-05-31T17:59:45.229Z,13.13
2018-05-31T18:01:48.623Z,10.70
2018-05-31T18:03:52.017Z,14.37
2018-05-31T18:05:55.493Z,23.23
2018-05-31T18:07:58.944Z,11.47
2018-05-31T18:10:03.059Z,15.43
2018-05-31T18:12:07.172Z,23.33
2018-05-31T18:14:10.521Z,11.67
2018-05-31T18:16:13.881Z,13.13
2018-05-31T18:18:17.266Z,15.77
2018-05-31T18:20:20.642Z,19.60
2018-05-31T18:22:24.012Z,14.13
2018-05-31T18:24:27.368Z,20.97
2018-05-31T18:26:31.137Z,16.50
2018-05-31T18:28:34.699Z,19.20
2018-05-31T18:30:38.068Z,12.33
2018-05-31T18:32:41.468Z,17.63
2018-05-31T18:34:46.296Z,14.70
2018-05-31T18:36:49.696Z,13.43
2018-05-31T18:38:53.063Z,18.00
2018-05-31T18:40:56.435Z,15.60
2018-05-31T18:43:00.056Z,13.13
2018-05-31T18:45:03.437Z,15.87
2018-05-31T18:47:07.221Z,14.90
2018-05-31T18:49:11.234Z,16.63
2018-05-31T18:51:20.497Z,15.83
2018-05-31T18:53:23.863Z,16.17
2018-05-31T18:55:27.241Z,14.60
2018-05-31T18:57:30.592Z,14.27
2018-05-31T18:59:34.035Z,17.50
2018-05-31T19:01:38.951Z,18.97
2018-05-31T19:03:42.515Z,16.00
2018-05-31T19:05:46.877Z,23.43
2018-05-31T19:07:51.003Z,16.70
2018-05-31T19:09:54.474Z,13.47
2018-05-31T19:11:58.354Z,18.53
2018-05-31T19:14:01.769Z,14.57
2018-05-31T19:16:05.193Z,19.83
2018-05-31T19:18:08.622Z,14.17
2018-05-31T19:20:12.694Z,16.97
2018-05-31T19:22:16.898Z,17.03
2018-05-31T19:24:26.114Z,12.47
2018-05-31T19:26:29.685Z,12.63
2018-05-31T19:28:33.086Z,20.83
2018-05-31T19:30:41.993Z,18.33
2018-05-31T19:32:46.803Z,11.10
2018-05-31T19:34:51.662Z,15.40
2018-05-31T19:37:01.041Z,14.73
2018-05-31T19:39:05.587Z,22.23
2018-05-31T19:41:10.243Z,15.90
2018-05-31T19:43:21.320Z,18.97
2018-05-31T19:45:25.596Z,14.40
2018-05-31T19:47:29.648Z,15.80
2018-05-31T19:49:33.186Z,12.80
2018-05-31T19:51:42.624Z,17.50
2018-05-31T19:53:47.029Z,10.97
2018-05-31T19:55:51.398Z,13.00
2018-05-31T19:58:00.497Z,13.37
2018-05-31T20:02:51.416Z,13.43
2018-05-31T20:04:54.953Z,15.27
2018-05-31T20:06:58.364Z,15.67
2018-05-31T20:09:02.846Z,11.73
2018-05-31T20:11:06.425Z,15.43
2018-05-31T20:13:10.676Z,12.53
2018-05-31T20:15:14.702Z,19.13
2018-05-31T20:17:18.171Z,18.37
2018-05-31T20:19:22.509Z,13.93
2018-05-31T20:21:26.434Z,15.33
2018-05-31T20:23:30.321Z,14.00
2018-05-31T20:25:33.780Z,15.60
2018-05-31T20:27:39.009Z,14.00
2018-05-31T20:29:42.537Z,16.53
2018-05-31T20:31:46.841Z,17.50
2018-05-31T20:33:51.221Z,17.83
2018-05-31T20:36:06.139Z,18.73
2018-05-31T20:38:12.339Z,27.00
2018-05-31T20:40:15.774Z,16.20
2018-05-31T20:42:19.154Z,19.03
2018-05-31T20:44:22.469Z,20.90
2018-05-31T20:46:27.326Z,16.10
2018-05-31T20:48:30.733Z,16.73
2018-05-31T20:50:36.024Z,19.67
2018-05-31T20:52:42.032Z,16.60
2018-05-31T20:54:46.239Z,17.87
2018-05-31T20:56:50.031Z,17.70
2018-05-31T20:58:53.550Z,20.77
2018-05-31T21:00:57.052Z,18.07
2018-05-31T21:03:00.394Z,24.23
2018-05-31T21:05:03.883Z,19.90
2018-05-31T21:07:07.552Z,16.00
2018-05-31T21:09:11.522Z,16.33
2018-05-31T21:11:15.001Z,22.13
2018-05-31T21:13:18.444Z,19.97
2018-05-31T21:15:21.835Z,21.63
2018-05-31T21:17:25.752Z,21.33
2018-05-31T21:19:29.231Z,23.13
2018-05-31T21:21:32.552Z,19.10
2018-05-31T21:23:37.286Z,21.20
2018-05-31T21:25:40.634Z,20.17
2018-05-31T21:27:44.081Z,26.90
2018-05-31T21:29:47.534Z,20.50
2018-05-31T21:31:50.862Z,19.73
2018-05-31T21:33:54.167Z,20.57
2018-05-31T21:35:57.700Z,20.60
2018-05-31T21:38:01.040Z,22.90
2018-05-31T21:40:05.143Z,23.17
2018-05-31T21:42:08.485Z,23.37
2018-05-31T21:44:11.888Z,19.97
2018-05-31T21:46:15.230Z,24.17
2018-05-31T21:48:18.609Z,20.40
2018-05-31T21:50:21.919Z,20.10
2018-05-31T21:52:25.257Z,23.80
2018-05-31T21:54:28.597Z,26.67
2018-05-31T21:56:31.912Z,16.43
2018-05-31T21:58:35.241Z,21.80
2018-05-31T22:00:44.811Z,20.63
2018-05-31T22:02:48.146Z,20.50
2018-05-31T22:04:51.468Z,22.60
2018-05-31T22:06:55.813Z,25.13
2018-05-31T22:08:59.149Z,23.10
2018-05-31T22:11:02.507Z,21.43
2018-05-31T22:13:06.043Z,24.93
2018-05-31T22:15:09.363Z,22.73
2018-05-31T22:17:12.688Z,20.90
2018-05-31T22:19:16.454Z,23.10
2018-05-31T22:21:20.933Z,23.93
2018-05-31T22:23:24.317Z,19.60
2018-05-31T22:25:27.652Z,23.50
2018-05-31T22:27:31.042Z,19.03
2018-05-31T22:29:34.360Z,22.30
2018-05-31T22:31:37.743Z,21.83
2018-05-31T22:33:41.083Z,23.30
2018-05-31T22:35:44.428Z,21.90
2018-05-31T22:37:48.529Z,25.60
2018-05-31T22:39:51.931Z,24.77
2018-05-31T22:41:55.199Z,24.43
2018-05-31T22:43:58.559Z,22.27
2018-05-31T22:46:01.928Z,26.37
2018-05-31T22:48:05.261Z,26.17
2018-05-31T22:50:08.619Z,21.70
2018-05-31T22:52:12.707Z,24.40
2018-05-31T22:54:16.165Z,23.07
2018-05-31T22:56:19.526Z,24.23
2018-05-31T22:58:22.860Z,21.90
2018-05-31T23:00:26.196Z,19.93
2018-05-31T23:02:30.305Z,25.00
2018-05-31T23:04:34.375Z,18.23
2018-05-31T23:06:37.670Z,20.80
2018-05-31T23:08:42.794Z,22.03
2018-05-31T23:10:46.105Z,22.37
2018-05-31T23:12:49.453Z,21.40
2018-05-31T23:14:52.784Z,18.60
2018-05-31T23:16:56.123Z,21.30
2018-05-31T23:18:59.430Z,18.93
2018-05-31T23:21:03.433Z,18.47
2018-05-31T23:23:06.752Z,28.63
2018-05-31T23:25:10.045Z,22.90
2018-05-31T23:27:13.390Z,23.23
2018-05-31T23:29:17.560Z,21.77
2018-05-31T23:31:20.883Z,22.53
2018-05-31T23:33:25.085Z,26.90
2018-05-31T23:35:28.429Z,26.40
2018-05-31T23:37:31.730Z,25.10
2018-05-31T23:39:35.055Z,23.63
2018-05-31T23:41:38.367Z,23.20
2018-05-31T23:43:41.713Z,24.53
2018-05-31T23:45:45.030Z,23.50
2018-05-31T23:47:48.352Z,21.83
2018-05-31T23:49:51.693Z,17.07
2018-05-31T23:51:55.034Z,23.30
2018-05-31T23:53:58.386Z,24.07
2018-05-31T23:56:01.726Z,18.80
2018-05-31T23:58:05.045Z,18.20
